sensor_id;sensor_type;location;lat;lon;timestamp;pressure;altitude;pressure_sealevel;temperature
45850;BMP180;10739;52.198;20.908;2023-08-06T00:00:28;99204.00;;;22.90
45850;BMP180;10739;52.198;20.908;2023-08-06T00:02:55;99206.00;;;22.80
45850;BMP180;10739;52.198;20.908;2023-08-06T00:05:21;99209.00;;;22.90
45850;BMP180;10739;52.198;20.908;2023-08-06T00:07:48;99215.00;;;23.00
45850;BMP180;10739;52.198;20.908;2023-08-06T00:10:15;99230.00;;;22.50
45850;BMP180;10739;52.198;20.908;2023-08-06T00:12:43;99247.00;;;22.50
45850;BMP180;10739;52.198;20.908;2023-08-06T00:15:10;99231.00;;;22.20
45850;BMP180;10739;52.198;20.908;2023-08-06T00:17:37;99235.00;;;22.40
45850;BMP180;10739;52.198;20.908;2023-08-06T00:20:05;99231.00;;;22.00
45850;BMP180;10739;52.198;20.908;2023-08-06T00:22:37;99224.00;;;22.30
45850;BMP180;10739;52.198;20.908;2023-08-06T00:25:05;99214.00;;;22.40
45850;BMP180;10739;52.198;20.908;2023-08-06T00:27:31;99207.00;;;22.60
45850;BMP180;10739;52.198;20.908;2023-08-06T00:29:59;99209.00;;;22.30
45850;BMP180;10739;52.198;20.908;2023-08-06T00:32:25;99197.00;;;22.50
45850;BMP180;10739;52.198;20.908;2023-08-06T00:34:51;99188.00;;;22.40
45850;BMP180;10739;52.198;20.908;2023-08-06T00:37:17;99174.00;;;22.70
45850;BMP180;10739;52.198;20.908;2023-08-06T00:39:47;99177.00;;;22.40
45850;BMP180;10739;52.198;20.908;2023-08-06T00:42:14;99174.00;;;22.60
45850;BMP180;10739;52.198;20.908;2023-08-06T00:44:43;99169.00;;;22.40
45850;BMP180;10739;52.198;20.908;2023-08-06T00:47:09;99163.00;;;22.50
45850;BMP180;10739;52.198;20.908;2023-08-06T00:49:37;99148.00;;;22.30
45850;BMP180;10739;52.198;20.908;2023-08-06T00:52:05;99154.00;;;22.40
45850;BMP180;10739;52.198;20.908;2023-08-06T00:54:34;99140.00;;;22.30
45850;BMP180;10739;52.198;20.908;2023-08-06T00:57:02;99121.00;;;22.20
45850;BMP180;10739;52.198;20.908;2023-08-06T00:59:31;99109.00;;;21.70
45850;BMP180;10739;52.198;20.908;2023-08-06T01:01:57;99097.00;;;21.80
45850;BMP180;10739;52.198;20.908;2023-08-06T01:04:24;99104.00;;;21.70
45850;BMP180;10739;52.198;20.908;2023-08-06T01:15:22;99067.00;;;21.80
45850;BMP180;10739;52.198;20.908;2023-08-06T01:17:50;99067.00;;;21.60
45850;BMP180;10739;52.198;20.908;2023-08-06T01:20:16;99043.00;;;21.90
45850;BMP180;10739;52.198;20.908;2023-08-06T01:22:42;99025.00;;;22.00
45850;BMP180;10739;52.198;20.908;2023-08-06T01:25:10;99008.00;;;21.70
45850;BMP180;10739;52.198;20.908;2023-08-06T01:30:19;98989.00;;;21.80
45850;BMP180;10739;52.198;20.908;2023-08-06T01:32:49;98983.00;;;21.90
45850;BMP180;10739;52.198;20.908;2023-08-06T01:35:19;98976.00;;;22.10
45850;BMP180;10739;52.198;20.908;2023-08-06T01:37:47;98960.00;;;22.30
45850;BMP180;10739;52.198;20.908;2023-08-06T01:40:14;98958.00;;;22.30
45850;BMP180;10739;52.198;20.908;2023-08-06T01:42:40;98951.00;;;22.20
45850;BMP180;10739;52.198;20.908;2023-08-06T01:45:08;98943.00;;;22.10
45850;BMP180;10739;52.198;20.908;2023-08-06T01:47:35;98933.00;;;22.20
45850;BMP180;10739;52.198;20.908;2023-08-06T01:50:02;98930.00;;;22.00
45850;BMP180;10739;52.198;20.908;2023-08-06T01:52:28;98935.00;;;22.00
45850;BMP180;10739;52.198;20.908;2023-08-06T01:54:55;98931.00;;;22.10
45850;BMP180;10739;52.198;20.908;2023-08-06T01:57:21;98931.00;;;22.20
45850;BMP180;10739;52.198;20.908;2023-08-06T01:59:47;98934.00;;;22.20
45850;BMP180;10739;52.198;20.908;2023-08-06T02:02:14;98932.00;;;22.60
45850;BMP180;10739;52.198;20.908;2023-08-06T02:04:40;98938.00;;;22.60
45850;BMP180;10739;52.198;20.908;2023-08-06T02:07:06;98934.00;;;22.40
45850;BMP180;10739;52.198;20.908;2023-08-06T02:09:32;98936.00;;;22.30
45850;BMP180;10739;52.198;20.908;2023-08-06T02:11:58;98922.00;;;22.10
45850;BMP180;10739;52.198;20.908;2023-08-06T02:14:24;98920.00;;;22.20
45850;BMP180;10739;52.198;20.908;2023-08-06T02:16:50;98918.00;;;22.40
45850;BMP180;10739;52.198;20.908;2023-08-06T02:19:17;98899.00;;;22.10
45850;BMP180;10739;52.198;20.908;2023-08-06T02:21:43;98904.00;;;22.10
45850;BMP180;10739;52.198;20.908;2023-08-06T02:24:09;98895.00;;;22.00
45850;BMP180;10739;52.198;20.908;2023-08-06T02:26:35;98897.00;;;22.20
45850;BMP180;10739;52.198;20.908;2023-08-06T02:29:01;98899.00;;;22.40
45850;BMP180;10739;52.198;20.908;2023-08-06T02:31:27;98906.00;;;22.50
45850;BMP180;10739;52.198;20.908;2023-08-06T02:33:53;98910.00;;;22.60
45850;BMP180;10739;52.198;20.908;2023-08-06T02:36:19;98918.00;;;22.50
45850;BMP180;10739;52.198;20.908;2023-08-06T02:38:45;98899.00;;;22.70
45850;BMP180;10739;52.198;20.908;2023-08-06T02:41:12;98904.00;;;22.70
45850;BMP180;10739;52.198;20.908;2023-08-06T02:43:38;98904.00;;;22.40
45850;BMP180;10739;52.198;20.908;2023-08-06T02:46:04;98898.00;;;22.30
45850;BMP180;10739;52.198;20.908;2023-08-06T02:48:31;98892.00;;;22.20
45850;BMP180;10739;52.198;20.908;2023-08-06T02:50:58;98887.00;;;22.40
45850;BMP180;10739;52.198;20.908;2023-08-06T02:53:25;98881.00;;;22.60
45850;BMP180;10739;52.198;20.908;2023-08-06T02:55:51;98877.00;;;22.60
45850;BMP180;10739;52.198;20.908;2023-08-06T02:58:17;98877.00;;;22.80
45850;BMP180;10739;52.198;20.908;2023-08-06T03:01:06;98864.00;;;22.50
45850;BMP180;10739;52.198;20.908;2023-08-06T03:03:33;98850.00;;;22.70
45850;BMP180;10739;52.198;20.908;2023-08-06T03:06:00;98846.00;;;22.70
45850;BMP180;10739;52.198;20.908;2023-08-06T03:08:27;98850.00;;;22.90
45850;BMP180;10739;52.198;20.908;2023-08-06T03:10:53;98845.00;;;22.70
45850;BMP180;10739;52.198;20.908;2023-08-06T03:13:20;98845.00;;;22.90
45850;BMP180;10739;52.198;20.908;2023-08-06T03:15:58;98839.00;;;22.80
45850;BMP180;10739;52.198;20.908;2023-08-06T03:18:25;98826.00;;;22.80
45850;BMP180;10739;52.198;20.908;2023-08-06T03:20:54;98827.00;;;22.70
45850;BMP180;10739;52.198;20.908;2023-08-06T03:23:21;98820.00;;;22.50
45850;BMP180;10739;52.198;20.908;2023-08-06T03:25:47;98813.00;;;22.60
45850;BMP180;10739;52.198;20.908;2023-08-06T03:28:13;98803.00;;;22.50
45850;BMP180;10739;52.198;20.908;2023-08-06T03:30:39;98804.00;;;22.90
45850;BMP180;10739;52.198;20.908;2023-08-06T03:33:05;98794.00;;;23.00
45850;BMP180;10739;52.198;20.908;2023-08-06T03:35:32;98796.00;;;22.80
45850;BMP180;10739;52.198;20.908;2023-08-06T03:37:58;98782.00;;;22.70
45850;BMP180;10739;52.198;20.908;2023-08-06T03:40:24;98769.00;;;22.60
45850;BMP180;10739;52.198;20.908;2023-08-06T03:42:50;98762.00;;;22.80
45850;BMP180;10739;52.198;20.908;2023-08-06T03:45:16;98760.00;;;22.70
45850;BMP180;10739;52.198;20.908;2023-08-06T03:47:42;98749.00;;;22.70
45850;BMP180;10739;52.198;20.908;2023-08-06T03:50:08;98741.00;;;22.80
45850;BMP180;10739;52.198;20.908;2023-08-06T03:52:34;98739.00;;;22.70
45850;BMP180;10739;52.198;20.908;2023-08-06T03:55:01;98740.00;;;22.60
45850;BMP180;10739;52.198;20.908;2023-08-06T03:57:27;98734.00;;;22.80
45850;BMP180;10739;52.198;20.908;2023-08-06T03:59:53;98724.00;;;22.90
45850;BMP180;10739;52.198;20.908;2023-08-06T04:02:19;98722.00;;;23.00
45850;BMP180;10739;52.198;20.908;2023-08-06T04:04:45;98719.00;;;23.10
45850;BMP180;10739;52.198;20.908;2023-08-06T04:07:11;98712.00;;;23.10
45850;BMP180;10739;52.198;20.908;2023-08-06T04:09:58;98706.00;;;23.00
45850;BMP180;10739;52.198;20.908;2023-08-06T04:12:26;98702.00;;;23.00
45850;BMP180;10739;52.198;20.908;2023-08-06T04:14:53;98703.00;;;23.20
45850;BMP180;10739;52.198;20.908;2023-08-06T04:17:20;98693.00;;;23.20
45850;BMP180;10739;52.198;20.908;2023-08-06T04:19:56;98693.00;;;23.10
45850;BMP180;10739;52.198;20.908;2023-08-06T04:22:25;98689.00;;;23.10
45850;BMP180;10739;52.198;20.908;2023-08-06T04:24:51;98690.00;;;23.00
45850;BMP180;10739;52.198;20.908;2023-08-06T04:27:19;98686.00;;;23.00
45850;BMP180;10739;52.198;20.908;2023-08-06T04:29:46;98687.00;;;22.90
45850;BMP180;10739;52.198;20.908;2023-08-06T04:32:13;98677.00;;;22.70
45850;BMP180;10739;52.198;20.908;2023-08-06T04:34:39;98677.00;;;23.00
45850;BMP180;10739;52.198;20.908;2023-08-06T04:37:05;98676.00;;;22.80
45850;BMP180;10739;52.198;20.908;2023-08-06T04:39:31;98665.00;;;23.10
45850;BMP180;10739;52.198;20.908;2023-08-06T04:41:57;98667.00;;;23.10
45850;BMP180;10739;52.198;20.908;2023-08-06T04:44:23;98659.00;;;23.30
45850;BMP180;10739;52.198;20.908;2023-08-06T04:46:50;98657.00;;;23.50
45850;BMP180;10739;52.198;20.908;2023-08-06T04:49:16;98649.00;;;23.40
45850;BMP180;10739;52.198;20.908;2023-08-06T04:51:42;98656.00;;;23.30
45850;BMP180;10739;52.198;20.908;2023-08-06T04:54:09;98653.00;;;23.60
45850;BMP180;10739;52.198;20.908;2023-08-06T04:56:35;98648.00;;;23.80
45850;BMP180;10739;52.198;20.908;2023-08-06T04:59:01;98656.00;;;23.60
45850;BMP180;10739;52.198;20.908;2023-08-06T05:01:27;98650.00;;;23.70
45850;BMP180;10739;52.198;20.908;2023-08-06T05:03:54;98646.00;;;23.60
45850;BMP180;10739;52.198;20.908;2023-08-06T05:06:20;98627.00;;;23.80
45850;BMP180;10739;52.198;20.908;2023-08-06T05:08:46;98638.00;;;24.00
45850;BMP180;10739;52.198;20.908;2023-08-06T05:11:12;98631.00;;;24.00
45850;BMP180;10739;52.198;20.908;2023-08-06T05:13:39;98628.00;;;24.00
45850;BMP180;10739;52.198;20.908;2023-08-06T05:16:05;98620.00;;;23.80
45850;BMP180;10739;52.198;20.908;2023-08-06T05:18:31;98627.00;;;24.00
45850;BMP180;10739;52.198;20.908;2023-08-06T05:21:00;98626.00;;;24.10
45850;BMP180;10739;52.198;20.908;2023-08-06T05:23:26;98622.00;;;24.30
45850;BMP180;10739;52.198;20.908;2023-08-06T05:25:52;98625.00;;;24.20
45850;BMP180;10739;52.198;20.908;2023-08-06T05:28:18;98616.00;;;24.20
45850;BMP180;10739;52.198;20.908;2023-08-06T05:30:44;98617.00;;;24.30
45850;BMP180;10739;52.198;20.908;2023-08-06T05:33:11;98606.00;;;24.20
45850;BMP180;10739;52.198;20.908;2023-08-06T05:35:37;98601.00;;;24.30
45850;BMP180;10739;52.198;20.908;2023-08-06T05:38:03;98597.00;;;24.60
45850;BMP180;10739;52.198;20.908;2023-08-06T05:40:29;98593.00;;;24.40
45850;BMP180;10739;52.198;20.908;2023-08-06T05:42:56;98584.00;;;24.50
45850;BMP180;10739;52.198;20.908;2023-08-06T05:45:24;98590.00;;;24.80
45850;BMP180;10739;52.198;20.908;2023-08-06T05:47:53;98575.00;;;25.00
45850;BMP180;10739;52.198;20.908;2023-08-06T05:50:21;98580.00;;;25.00
45850;BMP180;10739;52.198;20.908;2023-08-06T05:52:47;98572.00;;;25.00
45850;BMP180;10739;52.198;20.908;2023-08-06T05:55:13;98572.00;;;25.20
45850;BMP180;10739;52.198;20.908;2023-08-06T05:57:39;98568.00;;;25.40
45850;BMP180;10739;52.198;20.908;2023-08-06T06:00:07;98571.00;;;25.40
45850;BMP180;10739;52.198;20.908;2023-08-06T06:02:33;98558.00;;;25.50
45850;BMP180;10739;52.198;20.908;2023-08-06T06:05:00;98569.00;;;25.60
45850;BMP180;10739;52.198;20.908;2023-08-06T06:07:26;98576.00;;;25.90
45850;BMP180;10739;52.198;20.908;2023-08-06T06:09:52;98559.00;;;25.80
45850;BMP180;10739;52.198;20.908;2023-08-06T06:12:18;98565.00;;;25.80
45850;BMP180;10739;52.198;20.908;2023-08-06T06:14:44;98564.00;;;26.00
45850;BMP180;10739;52.198;20.908;2023-08-06T06:17:10;98554.00;;;25.90
45850;BMP180;10739;52.198;20.908;2023-08-06T06:19:37;98550.00;;;26.20
45850;BMP180;10739;52.198;20.908;2023-08-06T06:22:03;98544.00;;;26.30
45850;BMP180;10739;52.198;20.908;2023-08-06T06:24:29;98535.00;;;26.20
45850;BMP180;10739;52.198;20.908;2023-08-06T06:26:56;98536.00;;;26.20
45850;BMP180;10739;52.198;20.908;2023-08-06T06:29:22;98537.00;;;26.20
45850;BMP180;10739;52.198;20.908;2023-08-06T06:31:48;98535.00;;;26.20
45850;BMP180;10739;52.198;20.908;2023-08-06T06:34:14;98530.00;;;26.30
45850;BMP180;10739;52.198;20.908;2023-08-06T06:36:40;98537.00;;;26.40
45850;BMP180;10739;52.198;20.908;2023-08-06T06:39:06;98525.00;;;26.30
45850;BMP180;10739;52.198;20.908;2023-08-06T06:41:33;98524.00;;;26.70
45850;BMP180;10739;52.198;20.908;2023-08-06T06:44:00;98526.00;;;26.50
45850;BMP180;10739;52.198;20.908;2023-08-06T06:46:26;98522.00;;;26.60
45850;BMP180;10739;52.198;20.908;2023-08-06T06:48:52;98519.00;;;26.90
45850;BMP180;10739;52.198;20.908;2023-08-06T06:51:18;98517.00;;;27.00
45850;BMP180;10739;52.198;20.908;2023-08-06T06:53:44;98508.00;;;26.80
45850;BMP180;10739;52.198;20.908;2023-08-06T06:56:10;98505.00;;;26.80
45850;BMP180;10739;52.198;20.908;2023-08-06T06:58:36;98496.00;;;26.80
45850;BMP180;10739;52.198;20.908;2023-08-06T07:01:04;98505.00;;;26.90
45850;BMP180;10739;52.198;20.908;2023-08-06T07:03:30;98508.00;;;27.10
45850;BMP180;10739;52.198;20.908;2023-08-06T07:05:59;98506.00;;;26.90
45850;BMP180;10739;52.198;20.908;2023-08-06T07:08:26;98515.00;;;26.90
45850;BMP180;10739;52.198;20.908;2023-08-06T07:11:02;98514.00;;;27.10
45850;BMP180;10739;52.198;20.908;2023-08-06T07:13:29;98513.00;;;27.40
45850;BMP180;10739;52.198;20.908;2023-08-06T07:15:56;98516.00;;;27.40
45850;BMP180;10739;52.198;20.908;2023-08-06T07:18:23;98517.00;;;27.50
45850;BMP180;10739;52.198;20.908;2023-08-06T07:20:53;98512.00;;;27.50
45850;BMP180;10739;52.198;20.908;2023-08-06T07:23:25;98511.00;;;27.60
45850;BMP180;10739;52.198;20.908;2023-08-06T07:25:52;98515.00;;;27.80
45850;BMP180;10739;52.198;20.908;2023-08-06T07:28:18;98518.00;;;27.90
45850;BMP180;10739;52.198;20.908;2023-08-06T07:30:45;98513.00;;;27.90
45850;BMP180;10739;52.198;20.908;2023-08-06T07:33:12;98507.00;;;28.10
45850;BMP180;10739;52.198;20.908;2023-08-06T07:35:38;98508.00;;;28.20
45850;BMP180;10739;52.198;20.908;2023-08-06T07:38:05;98501.00;;;28.30
45850;BMP180;10739;52.198;20.908;2023-08-06T07:40:32;98506.00;;;28.40
45850;BMP180;10739;52.198;20.908;2023-08-06T07:42:58;98506.00;;;28.70
45850;BMP180;10739;52.198;20.908;2023-08-06T07:45:24;98500.00;;;28.90
45850;BMP180;10739;52.198;20.908;2023-08-06T07:47:52;98502.00;;;29.00
45850;BMP180;10739;52.198;20.908;2023-08-06T07:50:18;98507.00;;;28.80
45850;BMP180;10739;52.198;20.908;2023-08-06T07:52:44;98513.00;;;28.90
45850;BMP180;10739;52.198;20.908;2023-08-06T07:55:10;98512.00;;;28.60
45850;BMP180;10739;52.198;20.908;2023-08-06T07:57:36;98501.00;;;28.70
45850;BMP180;10739;52.198;20.908;2023-08-06T08:00:04;98504.00;;;28.90
45850;BMP180;10739;52.198;20.908;2023-08-06T08:02:31;98504.00;;;28.90
45850;BMP180;10739;52.198;20.908;2023-08-06T08:04:57;98499.00;;;29.10
45850;BMP180;10739;52.198;20.908;2023-08-06T08:07:23;98491.00;;;29.40
45850;BMP180;10739;52.198;20.908;2023-08-06T08:09:50;98490.00;;;29.60
45850;BMP180;10739;52.198;20.908;2023-08-06T08:12:16;98484.00;;;29.70
45850;BMP180;10739;52.198;20.908;2023-08-06T08:14:42;98486.00;;;30.10
45850;BMP180;10739;52.198;20.908;2023-08-06T08:17:11;98477.00;;;30.20
45850;BMP180;10739;52.198;20.908;2023-08-06T08:19:38;98477.00;;;30.10
45850;BMP180;10739;52.198;20.908;2023-08-06T08:22:04;98476.00;;;30.30
45850;BMP180;10739;52.198;20.908;2023-08-06T08:24:30;98478.00;;;30.60
45850;BMP180;10739;52.198;20.908;2023-08-06T08:26:56;98480.00;;;30.60
45850;BMP180;10739;52.198;20.908;2023-08-06T08:29:23;98478.00;;;30.90
45850;BMP180;10739;52.198;20.908;2023-08-06T08:31:49;98474.00;;;31.30
45850;BMP180;10739;52.198;20.908;2023-08-06T08:34:17;98461.00;;;31.50
45850;BMP180;10739;52.198;20.908;2023-08-06T08:36:43;98469.00;;;31.30
45850;BMP180;10739;52.198;20.908;2023-08-06T08:39:13;98467.00;;;31.30
45850;BMP180;10739;52.198;20.908;2023-08-06T08:41:39;98468.00;;;31.50
45850;BMP180;10739;52.198;20.908;2023-08-06T08:44:10;98470.00;;;31.90
45850;BMP180;10739;52.198;20.908;2023-08-06T08:46:40;98471.00;;;32.10
45850;BMP180;10739;52.198;20.908;2023-08-06T08:49:07;98466.00;;;32.10
45850;BMP180;10739;52.198;20.908;2023-08-06T08:51:34;98462.00;;;32.00
45850;BMP180;10739;52.198;20.908;2023-08-06T08:54:04;98468.00;;;31.90
45850;BMP180;10739;52.198;20.908;2023-08-06T08:56:31;98463.00;;;31.80
45850;BMP180;10739;52.198;20.908;2023-08-06T08:58:58;98457.00;;;31.70
45850;BMP180;10739;52.198;20.908;2023-08-06T09:01:26;98447.00;;;31.70
45850;BMP180;10739;52.198;20.908;2023-08-06T09:03:56;98450.00;;;31.90
45850;BMP180;10739;52.198;20.908;2023-08-06T09:06:25;98446.00;;;32.20
45850;BMP180;10739;52.198;20.908;2023-08-06T09:09:42;98449.00;;;32.80
45850;BMP180;10739;52.198;20.908;2023-08-06T09:12:16;98440.00;;;32.60
45850;BMP180;10739;52.198;20.908;2023-08-06T09:14:43;98442.00;;;32.50
45850;BMP180;10739;52.198;20.908;2023-08-06T09:17:10;98430.00;;;32.40
45850;BMP180;10739;52.198;20.908;2023-08-06T09:19:43;98431.00;;;32.50
45850;BMP180;10739;52.198;20.908;2023-08-06T09:22:17;98427.00;;;32.70
45850;BMP180;10739;52.198;20.908;2023-08-06T09:24:43;98424.00;;;32.40
45850;BMP180;10739;52.198;20.908;2023-08-06T09:27:14;98418.00;;;32.80
45850;BMP180;10739;52.198;20.908;2023-08-06T09:29:42;98424.00;;;33.40
45850;BMP180;10739;52.198;20.908;2023-08-06T09:32:09;98422.00;;;33.60
45850;BMP180;10739;52.198;20.908;2023-08-06T09:34:39;98416.00;;;33.60
45850;BMP180;10739;52.198;20.908;2023-08-06T09:37:05;98417.00;;;33.90
45850;BMP180;10739;52.198;20.908;2023-08-06T09:39:31;98408.00;;;33.80
45850;BMP180;10739;52.198;20.908;2023-08-06T09:42:00;98409.00;;;33.70
45850;BMP180;10739;52.198;20.908;2023-08-06T09:44:31;98417.00;;;33.90
45850;BMP180;10739;52.198;20.908;2023-08-06T09:47:01;98417.00;;;33.40
45850;BMP180;10739;52.198;20.908;2023-08-06T09:49:40;98410.00;;;33.70
45850;BMP180;10739;52.198;20.908;2023-08-06T09:52:13;98407.00;;;34.00
45850;BMP180;10739;52.198;20.908;2023-08-06T09:54:40;98402.00;;;34.20
45850;BMP180;10739;52.198;20.908;2023-08-06T09:57:06;98401.00;;;34.00
45850;BMP180;10739;52.198;20.908;2023-08-06T09:59:34;98406.00;;;34.20
45850;BMP180;10739;52.198;20.908;2023-08-06T10:02:10;98390.00;;;34.20
45850;BMP180;10739;52.198;20.908;2023-08-06T10:04:38;98382.00;;;35.00
45850;BMP180;10739;52.198;20.908;2023-08-06T10:07:04;98379.00;;;36.10
45850;BMP180;10739;52.198;20.908;2023-08-06T10:09:31;98384.00;;;35.40
45850;BMP180;10739;52.198;20.908;2023-08-06T10:11:59;98385.00;;;35.60
45850;BMP180;10739;52.198;20.908;2023-08-06T10:14:35;98379.00;;;34.80
45850;BMP180;10739;52.198;20.908;2023-08-06T10:17:03;98376.00;;;35.00
45850;BMP180;10739;52.198;20.908;2023-08-06T10:19:30;98390.00;;;35.40
45850;BMP180;10739;52.198;20.908;2023-08-06T10:22:16;98368.00;;;34.70
45850;BMP180;10739;52.198;20.908;2023-08-06T10:24:52;98364.00;;;36.70
45850;BMP180;10739;52.198;20.908;2023-08-06T10:28:09;98357.00;;;36.60
45850;BMP180;10739;52.198;20.908;2023-08-06T10:30:46;98366.00;;;35.60
45850;BMP180;10739;52.198;20.908;2023-08-06T10:33:12;98364.00;;;35.50
45850;BMP180;10739;52.198;20.908;2023-08-06T10:35:47;98370.00;;;35.30
45850;BMP180;10739;52.198;20.908;2023-08-06T10:38:20;98355.00;;;35.30
45850;BMP180;10739;52.198;20.908;2023-08-06T10:43:28;98349.00;;;35.30
45850;BMP180;10739;52.198;20.908;2023-08-06T10:45:56;98356.00;;;34.70
45850;BMP180;10739;52.198;20.908;2023-08-06T10:48:36;98355.00;;;34.10
45850;BMP180;10739;52.198;20.908;2023-08-06T10:51:07;98361.00;;;33.80
45850;BMP180;10739;52.198;20.908;2023-08-06T10:53:33;98361.00;;;32.90
45850;BMP180;10739;52.198;20.908;2023-08-06T10:56:01;98353.00;;;32.70
45850;BMP180;10739;52.198;20.908;2023-08-06T10:58:33;98350.00;;;32.50
45850;BMP180;10739;52.198;20.908;2023-08-06T11:01:00;98351.00;;;32.00
45850;BMP180;10739;52.198;20.908;2023-08-06T11:03:28;98351.00;;;31.30
45850;BMP180;10739;52.198;20.908;2023-08-06T11:05:54;98344.00;;;31.40
45850;BMP180;10739;52.198;20.908;2023-08-06T11:08:27;98340.00;;;32.00
45850;BMP180;10739;52.198;20.908;2023-08-06T11:10:55;98345.00;;;31.80
45850;BMP180;10739;52.198;20.908;2023-08-06T11:13:21;98335.00;;;31.30
45850;BMP180;10739;52.198;20.908;2023-08-06T11:15:47;98323.00;;;31.60
45850;BMP180;10739;52.198;20.908;2023-08-06T11:18:14;98318.00;;;32.70
45850;BMP180;10739;52.198;20.908;2023-08-06T11:20:40;98305.00;;;33.60
45850;BMP180;10739;52.198;20.908;2023-08-06T11:23:10;98317.00;;;33.80
45850;BMP180;10739;52.198;20.908;2023-08-06T11:25:44;98319.00;;;33.90
45850;BMP180;10739;52.198;20.908;2023-08-06T11:28:10;98308.00;;;33.70
45850;BMP180;10739;52.198;20.908;2023-08-06T11:30:38;98310.00;;;34.90
45850;BMP180;10739;52.198;20.908;2023-08-06T11:33:07;98297.00;;;35.20
45850;BMP180;10739;52.198;20.908;2023-08-06T11:35:38;98299.00;;;35.50
45850;BMP180;10739;52.198;20.908;2023-08-06T11:38:06;98283.00;;;35.20
45850;BMP180;10739;52.198;20.908;2023-08-06T11:40:35;98279.00;;;35.80
45850;BMP180;10739;52.198;20.908;2023-08-06T11:43:01;98282.00;;;35.70
45850;BMP180;10739;52.198;20.908;2023-08-06T11:45:29;98269.00;;;36.20
45850;BMP180;10739;52.198;20.908;2023-08-06T11:47:55;98269.00;;;38.20
45850;BMP180;10739;52.198;20.908;2023-08-06T11:50:28;98266.00;;;36.20
45850;BMP180;10739;52.198;20.908;2023-08-06T11:53:00;98269.00;;;36.50
45850;BMP180;10739;52.198;20.908;2023-08-06T11:55:28;98261.00;;;37.90
45850;BMP180;10739;52.198;20.908;2023-08-06T11:57:56;98255.00;;;37.70
45850;BMP180;10739;52.198;20.908;2023-08-06T12:00:26;98254.00;;;36.60
45850;BMP180;10739;52.198;20.908;2023-08-06T12:02:53;98250.00;;;36.10
45850;BMP180;10739;52.198;20.908;2023-08-06T12:05:22;98243.00;;;37.20
45850;BMP180;10739;52.198;20.908;2023-08-06T12:07:55;98243.00;;;36.40
45850;BMP180;10739;52.198;20.908;2023-08-06T12:10:24;98253.00;;;36.40
45850;BMP180;10739;52.198;20.908;2023-08-06T12:12:51;98247.00;;;34.80
45850;BMP180;10739;52.198;20.908;2023-08-06T12:15:18;98247.00;;;35.10
45850;BMP180;10739;52.198;20.908;2023-08-06T12:17:44;98247.00;;;34.60
45850;BMP180;10739;52.198;20.908;2023-08-06T12:20:10;98239.00;;;34.30
45850;BMP180;10739;52.198;20.908;2023-08-06T12:22:38;98236.00;;;34.10
45850;BMP180;10739;52.198;20.908;2023-08-06T12:25:12;98251.00;;;33.80
45850;BMP180;10739;52.198;20.908;2023-08-06T12:27:41;98257.00;;;33.70
45850;BMP180;10739;52.198;20.908;2023-08-06T12:30:08;98254.00;;;33.70
45850;BMP180;10739;52.198;20.908;2023-08-06T12:32:36;98243.00;;;33.20
45850;BMP180;10739;52.198;20.908;2023-08-06T12:35:03;98259.00;;;33.00
45850;BMP180;10739;52.198;20.908;2023-08-06T12:37:30;98255.00;;;33.10
45850;BMP180;10739;52.198;20.908;2023-08-06T12:39:56;98255.00;;;33.10
45850;BMP180;10739;52.198;20.908;2023-08-06T12:42:22;98271.00;;;32.30
45850;BMP180;10739;52.198;20.908;2023-08-06T12:44:50;98262.00;;;32.20
45850;BMP180;10739;52.198;20.908;2023-08-06T12:47:17;98248.00;;;32.00
45850;BMP180;10739;52.198;20.908;2023-08-06T12:49:44;98255.00;;;32.40
45850;BMP180;10739;52.198;20.908;2023-08-06T12:52:10;98254.00;;;32.60
45850;BMP180;10739;52.198;20.908;2023-08-06T12:54:39;98252.00;;;32.80
45850;BMP180;10739;52.198;20.908;2023-08-06T12:57:05;98261.00;;;32.90
45850;BMP180;10739;52.198;20.908;2023-08-06T12:59:33;98254.00;;;32.60
45850;BMP180;10739;52.198;20.908;2023-08-06T13:02:00;98260.00;;;32.60
45850;BMP180;10739;52.198;20.908;2023-08-06T13:04:27;98265.00;;;32.50
45850;BMP180;10739;52.198;20.908;2023-08-06T13:06:53;98245.00;;;32.40
45850;BMP180;10739;52.198;20.908;2023-08-06T13:09:20;98244.00;;;32.10
45850;BMP180;10739;52.198;20.908;2023-08-06T13:11:47;98249.00;;;31.80
45850;BMP180;10739;52.198;20.908;2023-08-06T13:14:16;98249.00;;;31.70
45850;BMP180;10739;52.198;20.908;2023-08-06T13:16:43;98234.00;;;31.50
45850;BMP180;10739;52.198;20.908;2023-08-06T13:19:11;98249.00;;;31.60
45850;BMP180;10739;52.198;20.908;2023-08-06T13:24:07;98265.00;;;32.20
45850;BMP180;10739;52.198;20.908;2023-08-06T13:26:34;98262.00;;;32.00
45850;BMP180;10739;52.198;20.908;2023-08-06T13:29:01;98253.00;;;33.10
45850;BMP180;10739;52.198;20.908;2023-08-06T13:31:28;98259.00;;;33.00
45850;BMP180;10739;52.198;20.908;2023-08-06T13:33:56;98258.00;;;32.50
45850;BMP180;10739;52.198;20.908;2023-08-06T13:36:27;98263.00;;;32.50
45850;BMP180;10739;52.198;20.908;2023-08-06T13:38:53;98267.00;;;32.10
45850;BMP180;10739;52.198;20.908;2023-08-06T13:41:20;98258.00;;;31.90
45850;BMP180;10739;52.198;20.908;2023-08-06T13:43:46;98261.00;;;32.30
45850;BMP180;10739;52.198;20.908;2023-08-06T13:46:13;98258.00;;;32.20
45850;BMP180;10739;52.198;20.908;2023-08-06T13:48:47;98271.00;;;31.00
45850;BMP180;10739;52.198;20.908;2023-08-06T13:51:15;98268.00;;;31.20
45850;BMP180;10739;52.198;20.908;2023-08-06T13:53:41;98255.00;;;31.90
45850;BMP180;10739;52.198;20.908;2023-08-06T13:56:10;98270.00;;;31.00
45850;BMP180;10739;52.198;20.908;2023-08-06T13:58:37;98275.00;;;31.20
45850;BMP180;10739;52.198;20.908;2023-08-06T14:01:04;98274.00;;;31.20
45850;BMP180;10739;52.198;20.908;2023-08-06T14:03:31;98264.00;;;30.70
45850;BMP180;10739;52.198;20.908;2023-08-06T14:05:57;98286.00;;;30.60
45850;BMP180;10739;52.198;20.908;2023-08-06T14:08:24;98285.00;;;31.00
45850;BMP180;10739;52.198;20.908;2023-08-06T14:10:51;98285.00;;;30.60
45850;BMP180;10739;52.198;20.908;2023-08-06T14:13:18;98290.00;;;31.10
45850;BMP180;10739;52.198;20.908;2023-08-06T14:15:45;98284.00;;;32.80